Time;durP1;ratioP1;P1;durP2;ratioP2;P2;SDS_P1;SDS_P2;PMS_P1;PMS_P2;Temp;Humidity;BMP_temperature;BMP_pressure;BME280_temperature;BME280_humidity;BME280_pressure;Samples;Min_cycle;Max_cycle;Signal;HPM_P1;HPM_P2
2022/01/02 00:01:58;;;;;;;3.78;2.50;;;;;;;13.14;64.74;100538.44;5080904;28;20048;-78
2022/01/02 00:04:29;;;;;;;5.38;2.42;;;;;;;13.18;64.61;100526.28;5080659;28;20060;-79
2022/01/02 00:07:05;;;;;;;3.60;2.70;;;;;;;13.15;64.48;100517.75;5080984;28;20056;-79
2022/01/02 00:09:34;;;;;;;3.97;2.50;;;;;;;13.13;64.17;100520.84;5080468;28;20052;-79
2022/01/02 00:12:09;;;;;;;3.10;2.03;;;;;;;13.16;64.35;100527.75;5080322;28;20504;-79
2022/01/02 00:14:38;;;;;;;4.10;2.40;;;;;;;13.12;64.25;100523.97;5080367;28;20060;-79
2022/01/02 00:17:07;;;;;;;4.03;2.85;;;;;;;13.14;64.08;100514.09;5081135;28;20056;-79
2022/01/02 00:19:39;;;;;;;4.60;2.75;;;;;;;13.13;64.20;100511.66;5080929;28;20052;-79
2022/01/02 00:22:15;;;;;;;4.18;2.72;;;;;;;13.15;63.64;100496.19;5082110;28;20052;-78
2022/01/02 00:24:44;;;;;;;4.00;2.40;;;;;;;13.17;63.83;100495.84;5080857;28;20048;-79
2022/01/02 00:27:12;;;;;;;3.63;2.80;;;;;;;13.17;63.79;100502.25;5080843;28;20063;-78
2022/01/02 00:29:42;;;;;;;3.80;2.40;;;;;;;13.16;63.64;100503.41;5080948;28;20469;-79
2022/01/02 00:32:10;;;;;;;;;;;;;;;13.16;63.43;100494.19;5080581;28;20059;-78
2022/01/02 00:34:38;;;;;;;4.47;2.72;;;;;;;13.24;63.62;100495.34;5081078;28;19928;-77
2022/01/02 00:37:08;;;;;;;4.53;3.15;;;;;;;13.27;63.93;100503.91;5079537;28;20059;-78
2022/01/02 00:39:37;;;;;;;4.22;2.90;;;;;;;13.31;63.64;100507.72;5080310;28;20052;-77
2022/01/02 00:42:10;;;;;;;4.15;2.75;;;;;;;13.32;63.04;100503.75;5080205;28;20059;-78
2022/01/02 00:44:49;;;;;;;3.97;2.80;;;;;;;13.22;63.70;100492.88;5079703;28;20056;-79
2022/01/02 00:47:21;;;;;;;4.97;2.90;;;;;;;13.25;63.61;100505.38;5095625;28;20052;-79
2022/01/02 00:50:00;;;;;;;4.43;2.70;;;;;;;13.28;63.50;100511.13;5100048;28;20241;-78
2022/01/02 00:52:33;;;;;;;3.85;2.70;;;;;;;13.29;63.55;100507.22;5078909;28;20059;-79
2022/01/02 00:55:06;;;;;;;4.55;2.63;;;;;;;13.34;63.72;100509.03;5040098;28;20069;-79
2022/01/02 00:57:39;;;;;;;4.80;2.78;;;;;;;13.29;63.97;100509.19;5040462;28;20498;-78
2022/01/02 01:00:10;;;;;;;4.28;3.22;;;;;;;13.18;64.40;100517.06;5039132;28;20076;-79
2022/01/02 01:02:41;;;;;;;3.92;2.85;;;;;;;13.19;64.16;100515.94;5040153;28;20053;-78
2022/01/02 01:05:10;;;;;;;5.63;3.13;;;;;;;13.20;64.43;100506.38;5038773;28;20053;-79
2022/01/02 01:07:40;;;;;;;5.05;3.03;;;;;;;13.20;63.96;100512.78;5040568;28;20053;-78
2022/01/02 01:10:11;;;;;;;5.07;3.10;;;;;;;13.24;64.43;100518.53;5039430;28;20045;-78
2022/01/02 01:12:39;;;;;;;4.22;2.80;;;;;;;13.21;64.36;100530.41;5034984;28;20467;-78
2022/01/02 01:15:08;;;;;;;3.40;2.85;;;;;;;13.09;64.53;100533.03;5038772;28;20053;-78
2022/01/02 01:17:38;;;;;;;3.15;2.38;;;;;;;13.03;64.83;100532.38;5038434;28;20054;-78
2022/01/02 01:20:08;;;;;;;5.00;3.00;;;;;;;13.17;64.12;100535.00;5038501;28;20065;-79
2022/01/02 01:22:36;;;;;;;5.40;3.60;;;;;;;13.19;63.76;100530.72;5038760;28;20054;-78
2022/01/02 01:25:07;;;;;;;4.32;2.95;;;;;;;13.23;63.89;100527.25;5039111;28;20061;-78
2022/01/02 01:27:35;;;;;;;4.80;3.05;;;;;;;13.14;63.76;100530.06;5042694;28;20050;-78
2022/01/02 01:30:06;;;;;;;4.47;3.17;;;;;;;13.02;64.14;100530.75;5039802;28;20050;-78
2022/01/02 01:32:33;;;;;;;4.00;2.58;;;;;;;13.03;64.17;100540.75;5033624;28;20157;-79
2022/01/02 01:35:02;;;;;;;4.03;2.70;;;;;;;13.16;63.90;100536.16;5020325;28;20058;-79
2022/01/02 01:37:29;;;;;;;4.68;2.58;;;;;;;13.08;64.30;100542.56;5020857;28;20062;-77
2022/01/02 01:39:57;;;;;;;4.50;3.00;;;;;;;13.08;64.32;100548.16;5020211;28;20073;-78
2022/01/02 01:42:34;;;;;;;4.57;2.83;;;;;;;13.22;63.77;100534.81;5037845;28;20511;-78
2022/01/02 01:47:46;;;;;;;5.47;2.97;;;;;;;13.27;63.27;100540.28;5020086;28;20062;-79
2022/01/02 01:50:14;;;;;;;4.38;2.70;;;;;;;13.24;63.63;100538.13;5019296;28;20057;-78
2022/01/02 01:52:41;;;;;;;5.65;2.85;;;;;;;13.26;63.18;100533.00;5039035;28;20054;-78
2022/01/02 01:55:10;;;;;;;4.20;2.95;;;;;;;13.33;63.25;100525.00;5080594;28;20045;-79
2022/01/02 01:57:40;;;;;;;5.93;3.20;;;;;;;13.32;63.09;100528.94;5079633;28;20049;-79
2022/01/02 02:00:13;;;;;;;3.05;2.30;;;;;;;13.22;63.32;100531.22;5079057;28;20057;-78
2022/01/02 02:02:41;;;;;;;6.13;3.40;;;;;;;13.24;63.35;100517.72;5060049;28;20064;-79
2022/01/02 02:05:09;;;;;;;4.18;3.00;;;;;;;13.25;63.11;100516.56;5078135;28;20063;-79
2022/01/02 02:07:40;;;;;;;3.80;2.75;;;;;;;13.22;63.15;100525.63;5079146;28;20516;-79
2022/01/02 02:10:13;;;;;;;3.90;2.78;;;;;;;13.22;63.11;100514.44;5078109;28;20524;-78
2022/01/02 02:12:46;;;;;;;4.13;2.78;;;;;;;13.18;63.26;100526.28;5077152;28;20053;-78
2022/01/02 02:15:15;;;;;;;4.68;2.60;;;;;;;13.19;63.28;100536.31;5078091;28;20056;-79
2022/01/02 02:17:44;;;;;;;5.38;2.70;;;;;;;13.24;62.89;100535.31;5082061;28;20059;-78
2022/01/02 02:20:15;;;;;;;3.83;2.53;;;;;;;13.22;63.34;100520.84;5081085;28;20485;-79
2022/01/02 02:22:45;;;;;;;4.72;2.60;;;;;;;13.16;63.14;100516.56;5081433;28;20509;-77
2022/01/02 02:25:14;;;;;;;4.57;2.35;;;;;;;13.29;62.68;100518.41;5082215;28;20052;-78
2022/01/02 02:27:49;;;;;;;5.57;3.15;;;;;;;13.14;63.81;100496.50;5082157;28;20052;-79
2022/01/02 02:30:17;;;;;;;5.10;2.70;;;;;;;13.27;63.08;100497.47;5082408;28;20048;-79
2022/01/02 02:32:45;;;;;;;5.88;3.00;;;;;;;13.29;62.79;100492.38;5081883;28;20048;-78
2022/01/02 02:35:14;;;;;;;4.68;2.53;;;;;;;13.33;62.54;100477.44;5082183;28;20432;-78
2022/01/02 02:37:43;;;;;;;;;;;;;;;13.31;62.95;100474.16;5083878;28;20045;-79
2022/01/02 02:40:12;;;;;;;5.60;2.83;;;;;;;13.39;62.54;100481.66;5081958;28;19924;-79
2022/01/02 02:42:47;;;;;;;4.97;3.03;;;;;;;13.45;62.15;100487.91;5081524;28;20397;-79
2022/01/02 02:51:21;;;;;;;3.50;2.40;;;;;;;13.31;62.83;100490.94;5019660;28;20069;-78
2022/01/02 02:53:50;;;;;;;4.90;2.60;;;;;;;13.37;62.88;100494.34;5067978;28;20059;-79
2022/01/02 02:56:21;;;;;;;4.30;2.70;;;;;;;13.37;62.51;100489.56;5081546;28;20052;-78
2022/01/02 02:58:50;;;;;;;6.28;2.70;;;;;;;13.53;62.28;100489.06;5083071;28;20166;-79
2022/01/02 03:01:19;;;;;;;5.88;3.25;;;;;;;13.58;61.77;100483.25;5082727;28;20409;-78
2022/01/02 03:03:50;;;;;;;6.80;2.60;;;;;;;13.55;62.25;100470.75;5082161;28;20056;-78
2022/01/02 03:06:19;;;;;;;5.10;2.80;;;;;;;13.45;62.77;100467.50;5088431;28;20064;-79
2022/01/02 03:08:48;;;;;;;5.28;2.80;;;;;;;13.47;62.92;100466.03;5082602;28;20053;-78
2022/01/02 03:11:20;;;;;;;6.60;2.70;;;;;;;13.62;62.07;100445.06;5081822;28;20050;-79
2022/01/02 03:13:49;;;;;;;4.53;2.47;;;;;;;13.55;62.48;100445.59;5081875;28;20044;-79
2022/01/02 03:16:16;;;;;;;4.75;2.65;;;;;;;13.56;62.62;100435.19;5081846;28;20052;-79
2022/01/02 03:18:44;;;;;;;4.63;2.70;;;;;;;13.55;62.69;100450.38;5081835;28;20053;-79
2022/01/02 03:21:12;;;;;;;5.47;2.42;;;;;;;13.57;62.58;100434.88;5080543;28;20063;-79
2022/01/02 03:23:42;;;;;;;3.70;2.50;;;;;;;13.59;62.08;100440.16;5081576;28;20413;-79
2022/01/02 03:26:10;;;;;;;5.13;3.03;;;;;;;13.51;62.47;100439.00;5080933;28;20409;-79
2022/01/02 03:28:37;;;;;;;4.45;2.50;;;;;;;13.58;62.30;100428.09;5080818;28;20059;-79
2022/01/02 03:31:05;;;;;;;7.50;3.15;;;;;;;13.63;62.48;100429.06;5082286;28;20056;-78
2022/01/02 03:33:32;;;;;;;5.13;3.00;;;;;;;13.52;62.38;100428.63;5081293;28;20056;-78
2022/01/02 03:36:02;;;;;;;6.18;3.28;;;;;;;13.63;62.10;100427.13;5080658;28;20071;-78
2022/01/02 03:38:29;;;;;;;;;;;;;;;13.54;62.43;100420.72;5081989;28;20057;-79
2022/01/02 03:40:58;;;;;;;5.20;2.47;;;;;;;13.57;62.48;100432.06;5081653;28;19920;-79
2022/01/02 03:43:25;;;;;;;5.97;2.80;;;;;;;13.64;62.50;100425.94;5082046;28;20063;-79
2022/01/02 03:45:53;;;;;;;5.97;2.80;;;;;;;13.61;62.30;100426.63;5081947;28;20053;-79
2022/01/02 03:48:20;;;;;;;5.18;2.78;;;;;;;13.59;62.57;100423.34;5082564;28;20056;-79
2022/01/02 03:50:50;;;;;;;5.85;2.70;;;;;;;13.53;62.77;100424.69;5080215;28;20048;-78
2022/01/02 03:53:18;;;;;;;7.70;3.25;;;;;;;13.57;62.88;100420.06;5059676;28;20490;-79
2022/01/02 03:55:45;;;;;;;4.10;2.55;;;;;;;13.54;63.11;100426.31;5060972;28;20053;-79
2022/01/02 03:58:14;;;;;;;8.35;3.38;;;;;;;13.59;62.41;100428.94;5060366;28;20064;-79
2022/01/02 04:00:42;;;;;;;4.53;2.78;;;;;;;13.54;62.72;100429.97;5062888;28;20052;-78
2022/01/02 04:03:09;;;;;;;7.18;2.70;;;;;;;13.42;63.36;100417.81;5077719;28;20056;-78
2022/01/02 04:05:38;;;;;;;5.82;2.63;;;;;;;13.51;63.50;100415.81;5077459;28;20059;-78
2022/01/02 04:08:05;;;;;;;4.70;2.63;;;;;;;13.52;63.60;100411.84;5078196;28;20055;-79
2022/01/02 04:10:33;;;;;;;5.65;3.17;;;;;;;13.64;63.36;100408.34;5077509;28;20075;-78
2022/01/02 04:13:01;;;;;;;5.63;2.92;;;;;;;13.66;63.49;100395.66;5077077;28;20063;-78
2022/01/02 04:15:30;;;;;;;6.45;2.90;;;;;;;13.56;64.90;100396.03;5077963;28;20385;-79
2022/01/02 04:17:57;;;;;;;5.55;2.75;;;;;;;13.62;64.79;100379.88;5078362;28;20052;-78
2022/01/02 04:20:25;;;;;;;6.40;2.85;;;;;;;13.49;66.86;100385.34;5076961;28;20048;-79
2022/01/02 04:22:52;;;;;;;7.53;2.58;;;;;;;13.39;66.80;100380.94;5077772;28;20048;-78
2022/01/02 04:25:21;;;;;;;7.07;3.28;;;;;;;13.47;66.52;100375.66;5077872;28;20056;-79
2022/01/02 04:27:48;;;;;;;10.10;3.20;;;;;;;13.43;66.48;100367.13;5078557;28;20392;-79
2022/01/02 04:30:15;;;;;;;6.10;2.80;;;;;;;13.42;66.90;100361.84;5077515;28;20067;-78
2022/01/02 04:32:44;;;;;;;4.97;3.05;;;;;;;13.35;67.00;100360.38;5077471;28;20044;-79
2022/01/02 04:35:12;;;;;;;6.50;2.50;;;;;;;13.37;66.93;100360.88;5077192;28;20052;-78
2022/01/02 04:37:39;;;;;;;6.47;2.75;;;;;;;13.40;66.81;100365.81;5077448;28;20049;-78
2022/01/02 04:40:08;;;;;;;8.95;2.92;;;;;;;13.26;67.61;100354.00;5076150;28;20159;-78
2022/01/02 04:42:35;;;;;;;5.07;3.00;;;;;;;13.32;67.37;100358.28;5075387;28;20055;-79
2022/01/02 04:45:02;;;;;;;4.95;2.80;;;;;;;13.31;67.95;100359.44;5076583;28;20075;-78
2022/01/02 04:47:35;;;;;;;6.20;2.80;;;;;;;13.20;68.72;100360.94;5076665;28;20051;-79
2022/01/02 04:50:05;;;;;;;6.53;3.08;;;;;;;13.15;69.06;100352.72;5077080;28;20048;-78
2022/01/02 04:52:32;;;;;;;5.32;3.13;;;;;;;13.23;69.77;100370.63;5075989;28;20067;-78
2022/01/02 04:55:00;;;;;;;9.30;2.95;;;;;;;13.22;69.66;100375.41;5076621;28;20052;-78
2022/01/02 04:57:27;;;;;;;5.10;2.92;;;;;;;13.27;69.85;100371.59;5076735;28;20052;-77
2022/01/02 04:59:55;;;;;;;5.43;3.10;;;;;;;13.28;70.09;100371.25;5075052;28;20044;-77
2022/01/02 05:02:22;;;;;;;4.03;2.50;;;;;;;13.31;69.28;100375.38;5073464;28;20056;-77
2022/01/02 05:04:50;;;;;;;6.47;2.88;;;;;;;13.29;69.06;100374.91;5073982;28;20044;-78
2022/01/02 05:07:19;;;;;;;7.13;3.65;;;;;;;13.22;69.04;100369.81;5073143;28;20059;-78
2022/01/02 05:09:46;;;;;;;5.40;2.95;;;;;;;13.27;69.00;100369.63;5074115;28;20056;-77
2022/01/02 05:12:14;;;;;;;9.68;3.28;;;;;;;13.23;70.50;100371.47;5073616;28;20052;-77
2022/01/02 05:14:41;;;;;;;8.00;3.53;;;;;;;13.24;69.37;100377.88;5075732;28;20048;-78
2022/01/02 05:17:09;;;;;;;5.38;2.92;;;;;;;13.15;70.12;100369.50;5075885;28;20430;-78
2022/01/02 05:19:36;;;;;;;5.10;2.85;;;;;;;13.13;70.71;100369.84;5075936;28;20409;-78
2022/01/02 05:22:04;;;;;;;9.85;3.50;;;;;;;13.04;71.21;100374.66;5076148;28;20051;-77
2022/01/02 05:24:33;;;;;;;6.20;3.38;;;;;;;13.05;71.21;100367.06;5075950;28;20059;-78
2022/01/02 05:27:00;;;;;;;5.70;2.80;;;;;;;13.11;71.26;100346.97;5075783;28;20056;-78
2022/01/02 05:29:27;;;;;;;5.25;3.13;;;;;;;13.10;71.42;100350.94;5075917;28;20063;-78
2022/01/02 05:31:54;;;;;;;5.85;2.83;;;;;;;13.14;71.36;100348.28;5075009;28;20485;-78
2022/01/02 05:34:22;;;;;;;5.82;3.10;;;;;;;13.12;71.33;100337.44;5074646;28;20060;-78
2022/01/02 05:36:49;;;;;;;7.40;3.45;;;;;;;13.08;72.17;100328.09;5075113;28;20049;-78
2022/01/02 05:39:18;;;;;;;5.47;3.30;;;;;;;13.06;72.35;100315.56;5075315;28;20056;-78
2022/01/02 05:41:49;;;;;;;6.55;3.13;;;;;;;13.10;71.94;100309.00;5075016;28;20048;-78
2022/01/02 05:44:17;;;;;;;8.88;3.40;;;;;;;13.13;72.47;100310.31;5075910;28;20056;-78
2022/01/02 05:46:45;;;;;;;6.85;3.13;;;;;;;13.09;72.53;100314.91;5075722;28;20064;-78
2022/01/02 05:49:13;;;;;;;5.30;3.10;;;;;;;13.19;71.91;100315.38;5076033;28;20049;-78
2022/01/02 05:51:41;;;;;;;6.50;3.10;;;;;;;13.09;71.65;100307.34;5075727;28;20052;-77
2022/01/02 05:54:09;;;;;;;7.97;3.28;;;;;;;13.15;71.65;100289.22;5074793;28;20076;-78
2022/01/02 05:56:36;;;;;;;6.60;3.15;;;;;;;13.14;71.64;100286.75;5076039;28;20053;-78
2022/01/02 05:59:05;;;;;;;8.30;3.17;;;;;;;12.88;72.42;100282.09;5075858;28;20055;-77
2022/01/02 06:01:33;;;;;;;9.45;3.55;;;;;;;13.04;71.50;100274.00;5075194;28;20059;-78
2022/01/02 06:04:01;;;;;;;6.30;3.20;;;;;;;13.02;71.26;100264.28;5076378;28;20063;-78
2022/01/02 06:06:28;;;;;;;5.57;2.97;;;;;;;13.02;71.18;100258.69;5075161;28;20064;-78
2022/01/02 06:08:55;;;;;;;6.85;3.65;;;;;;;13.01;71.79;100252.28;5075013;28;20075;-78
2022/01/02 06:11:22;;;;;;;6.75;3.20;;;;;;;13.04;72.32;100259.16;5073974;28;20458;-78
2022/01/02 06:13:50;;;;;;;8.25;3.28;;;;;;;12.95;72.80;100250.81;5075430;28;20052;-78
2022/01/02 06:16:18;;;;;;;7.32;3.10;;;;;;;12.93;73.31;100255.94;5074579;28;20504;-78
2022/01/02 06:18:46;;;;;;;7.30;3.40;;;;;;;13.04;72.80;100250.78;5075488;28;20060;-78
2022/01/02 06:21:13;;;;;;;8.48;3.03;;;;;;;13.13;72.75;100251.56;5074372;28;20059;-78
2022/01/02 06:23:41;;;;;;;5.97;3.08;;;;;;;13.15;73.27;100250.06;5075188;28;20049;-78
2022/01/02 06:26:08;;;;;;;7.88;3.72;;;;;;;13.13;73.13;100251.56;5074484;28;20045;-78
2022/01/02 06:28:35;;;;;;;5.07;3.03;;;;;;;13.11;72.83;100260.28;5075250;28;20139;-78
2022/01/02 06:31:03;;;;;;;6.03;3.05;;;;;;;13.21;72.52;100264.69;5074392;28;20489;-77
2022/01/02 06:33:32;;;;;;;8.80;3.50;;;;;;;13.17;72.40;100260.94;5072479;28;20148;-77
2022/01/02 06:35:59;;;;;;;6.90;3.22;;;;;;;13.18;72.76;100252.19;5086098;28;20048;-78
2022/01/02 06:38:26;;;;;;;7.45;3.15;;;;;;;13.19;71.99;100236.25;5095647;28;20389;-78
2022/01/02 06:40:54;;;;;;;6.78;3.53;;;;;;;13.06;73.58;100226.94;5089009;28;20048;-77
2022/01/02 06:43:21;;;;;;;8.75;3.00;;;;;;;13.20;72.25;100213.50;5057072;28;20366;-78
2022/01/02 06:45:49;;;;;;;7.80;3.15;;;;;;;13.15;73.18;100212.91;5075237;28;20060;-78
2022/01/02 06:48:16;;;;;;;7.60;3.30;;;;;;;13.20;72.83;100204.31;5074360;28;20377;-78
2022/01/02 06:50:45;;;;;;;10.30;3.40;;;;;;;13.23;72.88;100191.63;5075443;28;20056;-78
2022/01/02 06:53:13;;;;;;;8.88;3.10;;;;;;;13.19;72.17;100181.13;5074813;28;20505;-78
2022/01/02 06:55:40;;;;;;;8.45;3.00;;;;;;;13.17;73.21;100188.22;5074851;28;20055;-77
2022/01/02 06:58:08;;;;;;;8.30;3.45;;;;;;;13.09;73.60;100181.50;5074922;28;20429;-77
2022/01/02 07:00:35;;;;;;;7.35;3.50;;;;;;;13.14;74.17;100197.25;5075094;28;20052;-78
2022/01/02 07:03:02;;;;;;;7.05;3.63;;;;;;;13.11;74.03;100200.75;5078199;28;20059;-78
2022/01/02 07:05:29;;;;;;;7.20;3.63;;;;;;;13.13;74.71;100190.88;5079229;28;20056;-78
2022/01/02 07:07:58;;;;;;;6.47;3.67;;;;;;;13.15;74.06;100191.34;5079017;28;20056;-78
2022/01/02 07:10:26;;;;;;;5.80;3.20;;;;;;;13.18;73.73;100181.44;5077716;28;20052;-78
2022/01/02 07:12:54;;;;;;;9.18;3.42;;;;;;;13.18;73.71;100175.84;5079333;28;20470;-79
2022/01/02 07:15:21;;;;;;;7.53;3.53;;;;;;;13.13;73.45;100176.06;5077758;28;20045;-78
2022/01/02 07:17:49;;;;;;;7.55;3.17;;;;;;;13.15;73.27;100171.78;5078895;28;20044;-78
2022/01/02 07:20:16;;;;;;;7.05;3.35;;;;;;;13.19;72.56;100169.13;5078980;28;20056;-78
2022/01/02 07:22:47;;;;;;;7.35;3.40;;;;;;;13.17;72.81;100163.84;5078855;28;20052;-77
2022/01/02 07:25:15;;;;;;;4.95;2.88;;;;;;;13.15;72.73;100156.97;5061255;28;20475;-78
2022/01/02 07:27:43;;;;;;;7.27;3.40;;;;;;;13.19;72.68;100155.13;5079741;28;20052;-78
2022/01/02 07:30:11;;;;;;;6.95;3.53;;;;;;;13.16;72.58;100158.59;5078596;28;20052;-78
2022/01/02 07:32:39;;;;;;;6.45;3.55;;;;;;;13.17;72.39;100137.88;5077243;28;20063;-78
2022/01/02 07:35:08;;;;;;;6.65;3.35;;;;;;;13.20;72.40;100132.41;5081338;28;20055;-78
2022/01/02 07:37:36;;;;;;;7.05;3.60;;;;;;;13.19;71.80;100129.97;5097137;28;20488;-78
2022/01/02 07:40:05;;;;;;;10.23;3.63;;;;;;;13.13;72.04;100109.75;5098918;28;20048;-78
2022/01/02 07:42:34;;;;;;;6.88;3.38;;;;;;;13.03;71.95;100103.75;5078124;28;20412;-77
2022/01/02 07:45:02;;;;;;;8.02;3.30;;;;;;;12.95;71.62;100109.06;5079029;28;20048;-77
2022/01/02 07:47:29;;;;;;;7.07;3.15;;;;;;;12.84;72.01;100109.81;5076448;28;20048;-76
2022/01/02 07:49:57;;;;;;;6.72;3.22;;;;;;;12.70;72.36;100112.84;5075410;28;20063;-77
2022/01/02 07:52:24;;;;;;;6.78;3.25;;;;;;;12.74;72.19;100117.41;5074262;28;20048;-77
2022/01/02 07:54:51;;;;;;;6.68;2.95;;;;;;;12.70;72.34;100124.03;5075517;28;20060;-78
2022/01/02 07:57:19;;;;;;;7.07;3.47;;;;;;;12.61;72.11;100120.47;5078456;28;20056;-78
2022/01/02 07:59:48;;;;;;;5.78;3.00;;;;;;;12.66;71.63;100107.13;5078282;28;20053;-78
2022/01/02 08:02:16;;;;;;;8.60;4.07;;;;;;;12.52;71.68;100114.94;5076900;28;20056;-77
2022/01/02 08:04:43;;;;;;;8.48;3.92;;;;;;;12.65;71.44;100115.84;5075088;28;20053;-77
2022/01/02 08:07:10;;;;;;;6.35;3.22;;;;;;;12.70;71.63;100107.25;5075735;28;20048;-79
2022/01/02 08:09:38;;;;;;;9.98;3.38;;;;;;;12.57;71.64;100093.19;5075415;28;20063;-77
2022/01/02 08:12:06;;;;;;;6.55;2.95;;;;;;;12.72;71.25;100079.78;5076194;28;20053;-77
2022/01/02 08:14:33;;;;;;;7.32;2.88;;;;;;;12.73;70.97;100053.50;5076219;28;20060;-78
2022/01/02 08:17:03;;;;;;;7.72;3.60;;;;;;;12.77;71.42;100030.13;5075528;28;20091;-76
2022/01/02 08:19:30;;;;;;;5.85;3.10;;;;;;;12.81;71.25;100013.50;5075701;28;20454;-77
2022/01/02 08:21:57;;;;;;;6.65;2.92;;;;;;;12.84;71.68;100000.81;5076733;28;20052;-77
2022/01/02 08:24:24;;;;;;;5.80;2.97;;;;;;;12.87;71.63;99975.78;5077122;28;20048;-77
2022/01/02 08:26:52;;;;;;;6.95;3.25;;;;;;;12.95;71.12;99946.09;5077464;28;20059;-78
2022/01/02 08:29:20;;;;;;;7.80;3.10;;;;;;;13.08;70.91;99950.59;5077225;28;20049;-78
2022/01/02 08:31:47;;;;;;;10.45;2.70;;;;;;;13.12;71.09;99945.13;5076947;28;20049;-78
2022/01/02 08:34:16;;;;;;;7.60;2.78;;;;;;;13.25;70.84;99966.38;5077677;28;20057;-79
2022/01/02 08:36:43;;;;;;;8.15;2.83;;;;;;;13.37;71.03;99960.84;5095981;28;20497;-78
2022/01/02 08:39:11;;;;;;;9.18;3.10;;;;;;;13.39;71.00;99950.13;5097931;28;20070;-78
2022/01/02 08:41:38;;;;;;;7.38;2.90;;;;;;;13.19;71.51;99945.38;5085328;28;20516;-78
2022/01/02 08:44:06;;;;;;;7.32;2.67;;;;;;;13.39;71.01;99933.31;5076569;28;20059;-79
2022/01/02 08:46:33;;;;;;;9.63;2.95;;;;;;;13.41;70.21;99935.78;5077509;28;20056;-79
2022/01/02 08:49:01;;;;;;;9.90;3.22;;;;;;;13.44;70.04;99940.72;5077235;28;20497;-79
2022/01/02 08:51:29;;;;;;;8.48;2.88;;;;;;;13.35;70.00;99954.75;5075540;28;20052;-80
2022/01/02 08:53:57;;;;;;;7.10;2.28;;;;;;;13.30;67.90;99957.78;5076326;28;20053;-80
2022/01/02 08:56:24;;;;;;;4.80;2.17;;;;;;;13.44;66.14;99939.88;5076824;28;20052;-80
2022/01/02 08:58:52;;;;;;;5.03;1.70;;;;;;;13.33;64.86;99937.53;5056671;28;20059;-80
2022/01/02 09:01:19;;;;;;;7.35;2.47;;;;;;;13.38;64.83;99953.28;5064812;28;20409;-80
2022/01/02 09:03:46;;;;;;;4.55;2.25;;;;;;;13.42;66.17;99945.00;5076143;28;20067;-78
2022/01/02 09:06:14;;;;;;;4.80;2.08;;;;;;;13.44;64.22;99920.28;5074201;28;20072;-80
2022/01/02 09:08:43;;;;;;;4.20;2.40;;;;;;;13.35;63.31;99928.78;5058600;28;20049;-80
2022/01/02 09:11:11;;;;;;;5.70;2.35;;;;;;;13.27;62.71;99919.31;5059508;28;20053;-79
2022/01/02 09:13:39;;;;;;;3.20;1.80;;;;;;;13.25;62.25;99938.41;5055840;28;20053;-79
2022/01/02 09:16:06;;;;;;;5.43;2.13;;;;;;;13.34;64.31;99939.16;5062050;28;20052;-79
2022/01/02 09:18:34;;;;;;;5.60;2.00;;;;;;;13.43;61.86;99955.03;5075184;28;20057;-79
2022/01/02 09:21:01;;;;;;;6.03;2.38;;;;;;;13.47;61.54;99973.56;5075518;28;20048;-79
2022/01/02 09:23:29;;;;;;;3.45;2.17;;;;;;;13.52;61.54;99966.94;5073850;28;20048;-78
2022/01/02 09:25:58;;;;;;;3.95;2.10;;;;;;;13.60;60.64;99961.22;5071360;28;20060;-78
2022/01/02 09:28:25;;;;;;;5.40;2.00;;;;;;;13.59;60.86;99965.22;5075476;28;20060;-79
2022/01/02 09:30:53;;;;;;;4.22;1.85;;;;;;;13.51;60.66;99962.50;5075508;28;20505;-80
2022/01/02 09:33:20;;;;;;;3.17;1.83;;;;;;;13.62;60.44;99969.28;5075520;28;20048;-80
2022/01/02 09:35:48;;;;;;;4.18;1.85;;;;;;;13.63;59.03;99970.09;5075302;28;20052;-79
2022/01/02 09:38:15;;;;;;;4.50;2.10;;;;;;;13.62;60.71;99968.47;5076431;28;20068;-79
2022/01/02 09:40:43;;;;;;;4.10;2.47;;;;;;;13.28;65.91;99971.28;5075141;28;20057;-78
2022/01/02 09:43:12;;;;;;;3.50;1.92;;;;;;;13.32;63.75;99979.84;5075988;28;20056;-79
2022/01/02 09:45:41;;;;;;;4.80;2.40;;;;;;;13.32;62.64;99954.66;5075871;28;20516;-78
2022/01/02 09:48:09;;;;;;;2.85;2.15;;;;;;;13.07;62.59;99925.78;5075088;28;20053;-79
2022/01/02 09:50:39;;;;;;;2.85;1.88;;;;;;;13.12;62.14;99933.94;5074025;28;20064;-80
2022/01/02 09:53:07;;;;;;;3.35;1.70;;;;;;;13.05;63.50;99928.09;5074040;28;20045;-72
2022/01/02 09:55:41;;;;;;;6.75;2.10;;;;;;;12.87;65.95;99908.72;5072515;28;20370;-81
2022/01/02 09:58:12;;;;;;;3.30;1.70;;;;;;;12.78;68.00;99913.53;5076912;28;20477;-82
2022/01/02 10:00:44;;;;;;;2.63;1.80;;;;;;;12.86;66.29;99918.25;5073424;28;20049;-80
2022/01/02 10:03:12;;;;;;;3.72;1.90;;;;;;;12.97;64.30;99933.41;5071294;28;20059;-80
2022/01/02 10:05:54;;;;;;;3.47;1.90;;;;;;;12.91;64.78;99957.16;5065272;28;20041;-80
2022/01/02 10:08:25;;;;;;;3.60;1.98;;;;;;;12.76;64.08;99944.63;5076399;28;20048;-82
2022/01/02 10:11:00;;;;;;;2.80;1.95;;;;;;;12.95;64.14;99960.91;5063416;28;20041;-80
2022/01/02 10:13:38;;;;;;;4.10;2.00;;;;;;;13.08;62.95;99959.00;5076360;28;20056;-81
2022/01/02 10:16:19;;;;;;;4.88;2.10;;;;;;;12.58;69.92;99938.38;5074656;28;20075;-81
2022/01/02 10:18:48;;;;;;;4.63;2.38;;;;;;;12.47;72.44;99914.78;5075832;28;20507;-80
2022/01/02 10:21:31;;;;;;;4.55;2.42;;;;;;;12.62;66.89;99912.53;5074164;28;20048;-81
2022/01/02 10:24:12;;;;;;;3.10;1.85;;;;;;;12.76;66.67;99927.03;5074771;28;20048;-82
2022/01/02 10:27:05;;;;;;;3.25;2.25;;;;;;;12.90;66.34;99938.75;5077112;28;20494;-83
2022/01/02 10:29:48;;;;;;;3.80;2.22;;;;;;;13.23;65.64;99957.53;5075270;28;20417;-82
2022/01/02 10:32:31;;;;;;;3.45;2.17;;;;;;;13.18;63.42;99963.31;5074793;28;20044;-80
2022/01/02 10:35:16;;;;;;;5.90;2.33;;;;;;;13.15;64.51;99966.81;5071316;28;20071;-82
2022/01/02 10:37:45;;;;;;;4.30;2.70;;;;;;;11.87;82.12;99941.13;5080031;28;20049;-80
2022/01/02 10:40:31;;;;;;;5.18;3.30;;;;;;;11.44;85.81;99950.47;5079435;28;20048;-83
2022/01/02 10:43:00;;;;;;;4.20;2.60;;;;;;;12.06;81.29;99961.06;5080351;28;20123;-81
2022/01/02 10:45:37;;;;;;;5.10;3.15;;;;;;;12.22;81.53;99974.44;5081006;28;20124;-82
2022/01/02 10:48:10;;;;;;;7.25;3.30;;;;;;;12.30;79.06;99954.03;5080606;28;20049;-81
2022/01/02 10:50:39;;;;;;;4.93;2.72;;;;;;;12.35;74.12;99945.47;5080801;28;20505;-82
2022/01/02 10:53:17;;;;;;;3.67;2.42;;;;;;;12.39;73.19;99947.22;5079527;28;20056;-82
2022/01/02 10:55:46;;;;;;;4.85;2.80;;;;;;;12.36;71.85;99933.13;5078143;28;20048;-82
2022/01/02 10:58:17;;;;;;;4.35;2.45;;;;;;;12.65;69.29;99946.22;5080510;28;20386;-82
2022/01/02 11:00:45;;;;;;;4.50;2.92;;;;;;;12.97;67.69;99927.81;5079347;28;20054;-81
2022/01/02 11:03:15;;;;;;;3.75;2.17;;;;;;;13.37;64.83;99926.44;5079244;28;20045;-81
2022/01/02 11:05:46;;;;;;;3.53;2.00;;;;;;;13.28;64.00;99926.53;5078610;28;20060;-80
2022/01/02 11:08:17;;;;;;;5.90;2.60;;;;;;;13.36;64.21;99917.25;5079475;28;20048;-82
2022/01/02 11:10:45;;;;;;;4.10;2.38;;;;;;;13.53;62.38;99898.63;5082598;28;20049;-81
2022/01/02 11:13:14;;;;;;;3.22;2.28;;;;;;;13.35;62.52;99907.22;5080569;28;20048;-81
2022/01/02 11:15:42;;;;;;;4.00;2.10;;;;;;;13.59;61.92;99900.03;5078036;28;20057;-80
2022/01/02 11:18:10;;;;;;;4.05;2.53;;;;;;;13.97;61.35;99907.25;5077256;28;20060;-80
2022/01/02 11:20:40;;;;;;;4.45;2.30;;;;;;;14.12;59.42;99900.94;5079497;28;20063;-82
2022/01/02 11:23:14;;;;;;;4.32;2.40;;;;;;;14.00;59.67;99912.16;5079092;28;20052;-82
2022/01/02 11:25:50;;;;;;;4.38;2.47;;;;;;;13.74;60.75;99918.91;5079106;28;20044;-83
2022/01/02 11:28:27;;;;;;;4.82;2.97;;;;;;;14.01;60.76;99911.81;5080486;28;20053;-83
2022/01/02 11:30:55;;;;;;;4.85;2.40;;;;;;;14.17;59.43;99914.72;5079663;28;20048;-83
2022/01/02 11:33:30;;;;;;;4.90;2.78;;;;;;;14.26;59.16;99930.53;5080166;28;20048;-83
2022/01/02 11:36:00;;;;;;;7.78;3.08;;;;;;;13.89;60.47;99903.41;5081505;28;20056;-83
2022/01/02 11:38:44;;;;;;;4.45;2.70;;;;;;;14.15;60.16;99905.00;5081759;28;20063;-83
2022/01/02 11:41:16;;;;;;;5.95;3.28;;;;;;;14.20;60.10;99916.78;5081289;28;20472;-83
2022/01/02 11:43:53;;;;;;;4.70;3.05;;;;;;;14.12;60.63;99914.13;5081126;28;20059;-84
2022/01/02 11:46:33;;;;;;;3.88;2.67;;;;;;;14.19;59.89;99908.72;5080914;28;20057;-83
2022/01/02 11:49:22;;;;;;;6.15;2.80;;;;;;;14.07;60.66;99914.34;5082160;28;20053;-84